createdAt,value
2023-05-05T00:02:26.507Z,100131.19
2023-05-05T00:04:53.157Z,100131.47
2023-05-05T00:07:19.659Z,100127.22
2023-05-05T00:09:46.222Z,100128.53
2023-05-05T00:12:12.796Z,100121.38
2023-05-05T00:14:39.289Z,100129.03
2023-05-05T00:17:05.910Z,100123.47
2023-05-05T00:19:32.480Z,100123.19
2023-05-05T00:21:59.043Z,100114.69
2023-05-05T00:24:25.871Z,100111.22
2023-05-05T00:26:52.521Z,100107.75
2023-05-05T00:29:19.016Z,100108.00
2023-05-05T00:31:46.046Z,100101.91
2023-05-05T00:34:12.583Z,100099.47
2023-05-05T00:36:39.059Z,100095.50
2023-05-05T00:39:05.583Z,100095.78
2023-05-05T00:41:32.106Z,100093.34
2023-05-05T00:43:58.704Z,100089.88
2023-05-05T00:46:28.171Z,100088.25
2023-05-05T00:48:55.298Z,100083.75
2023-05-05T00:51:22.759Z,100090.66
2023-05-05T00:53:49.839Z,100085.88
2023-05-05T00:56:22.011Z,100086.94
2023-05-05T00:58:49.112Z,100088.25
2023-05-05T01:01:16.489Z,100078.94
2023-05-05T01:03:43.160Z,100083.72
2023-05-05T01:06:41.942Z,100077.31
2023-05-05T01:09:25.420Z,100074.41
2023-05-05T01:12:05.451Z,100073.63
2023-05-05T01:14:42.151Z,100071.75
2023-05-05T01:17:22.129Z,100062.94
2023-05-05T01:19:48.648Z,100072.00
2023-05-05T01:22:20.026Z,100061.06
2023-05-05T01:25:20.100Z,100064.53
2023-05-05T01:27:59.515Z,100058.69
2023-05-05T01:30:35.100Z,100060.56
2023-05-05T01:33:06.724Z,100059.19
2023-05-05T01:35:40.070Z,100058.16
2023-05-05T01:38:11.935Z,100058.13
2023-05-05T01:40:44.384Z,100059.47
2023-05-05T01:43:13.486Z,100062.41
2023-05-05T01:45:42.810Z,100062.41
2023-05-05T01:48:12.600Z,100068.25
2023-05-05T01:50:41.857Z,100062.63
2023-05-05T01:53:09.894Z,100061.59
2023-05-05T01:55:38.946Z,100059.19
2023-05-05T01:58:07.716Z,100053.34
2023-05-05T02:00:34.735Z,100051.78
2023-05-05T02:03:04.557Z,100054.94
2023-05-05T02:05:33.005Z,100055.75
2023-05-05T02:08:00.969Z,100054.66
2023-05-05T02:10:28.453Z,100054.94
2023-05-05T02:12:56.361Z,100059.47
2023-05-05T02:15:25.017Z,100053.88
2023-05-05T02:17:54.933Z,100057.88
2023-05-05T02:20:24.163Z,100055.44
2023-05-05T02:22:50.767Z,100057.03
2023-05-05T02:25:20.205Z,100055.44
2023-05-05T02:27:49.286Z,100061.31
2023-05-05T02:30:19.824Z,100062.63
2023-05-05T02:32:50.817Z,100059.69
2023-05-05T02:35:30.084Z,100060.75
2023-05-05T02:38:02.525Z,100058.09
2023-05-05T02:40:33.032Z,100066.59
2023-05-05T02:43:03.947Z,100061.25
2023-05-05T02:45:30.658Z,100064.19
2023-05-05T02:47:57.169Z,100067.38
2023-05-05T02:50:23.722Z,100067.91
2023-05-05T02:52:50.422Z,100067.38
2023-05-05T02:55:17.123Z,100072.47
2023-05-05T02:58:07.749Z,100070.88
2023-05-05T03:00:46.196Z,100071.09
2023-05-05T03:03:24.900Z,100061.81
2023-05-05T03:05:59.246Z,100065.00
2023-05-05T03:08:38.697Z,100063.13
2023-05-05T03:11:07.341Z,100056.22
2023-05-05T03:13:40.571Z,100058.38
2023-05-05T03:16:08.981Z,100065.78
2023-05-05T03:18:38.054Z,100063.94
2023-05-05T03:21:08.898Z,100066.59
2023-05-05T03:23:36.598Z,100066.59
2023-05-05T03:26:03.192Z,100063.13
2023-05-05T03:28:29.771Z,100070.03
2023-05-05T03:30:56.564Z,100069.25
2023-05-05T03:33:23.046Z,100069.25
2023-05-05T03:35:49.598Z,100069.81
2023-05-05T03:38:16.086Z,100059.16
2023-05-05T03:40:44.552Z,100062.03
2023-05-05T03:43:11.834Z,100062.31
2023-05-05T03:45:38.697Z,100060.97
2023-05-05T03:48:06.219Z,100061.53
2023-05-05T03:50:32.763Z,100058.59
2023-05-05T03:52:59.263Z,100051.19
2023-05-05T03:55:25.894Z,100057.31
2023-05-05T03:57:52.459Z,100048.53
2023-05-05T04:00:19.387Z,100053.59
2023-05-05T04:02:45.961Z,100044.81
2023-05-05T04:05:12.530Z,100052.78
2023-05-05T04:07:39.009Z,100050.13
2023-05-05T04:10:06.943Z,100054.94
2023-05-05T04:12:33.718Z,100048.81
2023-05-05T04:15:00.349Z,100052.00
2023-05-05T04:17:26.945Z,100053.06
2023-05-05T04:19:53.540Z,100049.09
2023-05-05T04:22:20.828Z,100048.56
2023-05-05T04:24:47.669Z,100049.41
2023-05-05T04:27:14.194Z,100055.25
2023-05-05T04:29:41.342Z,100054.97
2023-05-05T04:32:07.857Z,100059.50
2023-05-05T04:34:34.414Z,100056.31
2023-05-05T04:37:00.959Z,100060.56
2023-05-05T04:39:27.484Z,100058.19
2023-05-05T04:41:54.046Z,100055.81
2023-05-05T04:44:20.748Z,100059.25
2023-05-05T04:46:47.263Z,100059.00
2023-05-05T04:49:13.846Z,100065.13
2023-05-05T04:51:43.461Z,100058.75
2023-05-05T04:54:10.012Z,100065.41
2023-05-05T04:56:37.292Z,100061.69
2023-05-05T04:59:03.862Z,100070.47
2023-05-05T05:01:30.565Z,100061.44
2023-05-05T05:03:57.326Z,100063.03
2023-05-05T05:06:24.257Z,100066.75
2023-05-05T05:08:50.818Z,100069.97
2023-05-05T05:11:17.324Z,100072.63
2023-05-05T05:13:44.099Z,100073.16
2023-05-05T05:16:11.596Z,100069.19
2023-05-05T05:18:38.187Z,100079.56
2023-05-05T05:21:04.711Z,100074.78
2023-05-05T05:23:31.207Z,100071.06
2023-05-05T05:25:57.865Z,100070.56
2023-05-05T05:28:24.433Z,100075.59
2023-05-05T05:30:52.144Z,100079.63
2023-05-05T05:33:18.967Z,100081.00
2023-05-05T05:35:45.600Z,100083.38
2023-05-05T05:38:12.109Z,100078.84
2023-05-05T05:40:38.641Z,100087.13
2023-05-05T05:43:05.258Z,100082.59
2023-05-05T05:45:31.798Z,100082.09
2023-05-05T05:47:58.944Z,100087.69
2023-05-05T05:50:28.503Z,100089.28
2023-05-05T05:52:55.516Z,100083.69
2023-05-05T05:55:22.066Z,100094.59
2023-05-05T05:57:48.592Z,100083.97
2023-05-05T06:00:15.981Z,100093.28
2023-05-05T06:02:42.595Z,100091.19
2023-05-05T06:05:09.571Z,100094.66
2023-05-05T06:07:36.195Z,100093.31
2023-05-05T06:10:14.345Z,100105.81
2023-05-05T06:12:41.469Z,100103.16
2023-05-05T06:15:08.406Z,100101.59
2023-05-05T06:17:34.910Z,100094.13
2023-05-05T06:20:02.167Z,100101.06
2023-05-05T06:22:28.752Z,100100.53
2023-05-05T06:24:55.336Z,100100.25
2023-05-05T06:27:21.925Z,100104.28
2023-05-05T06:29:49.111Z,100110.16
2023-05-05T06:32:15.652Z,100107.75
2023-05-05T06:34:44.583Z,100112.81
2023-05-05T06:37:11.254Z,100109.63
2023-05-05T06:39:37.755Z,100110.94
2023-05-05T06:42:04.258Z,100114.97
2023-05-05T06:44:31.217Z,100113.88
2023-05-05T06:46:57.729Z,100117.91
2023-05-05T06:49:24.263Z,100121.09
2023-05-05T06:51:50.902Z,100122.44
2023-05-05T06:54:17.920Z,100125.38
2023-05-05T06:56:44.480Z,100121.41
2023-05-05T06:59:11.845Z,100125.91
2023-05-05T07:01:38.391Z,100136.06
2023-05-05T07:04:05.257Z,100133.91
2023-05-05T07:06:32.219Z,100137.66
2023-05-05T07:08:58.772Z,100134.47
2023-05-05T07:11:25.301Z,100149.09
2023-05-05T07:13:51.860Z,100140.59
2023-05-05T07:16:18.382Z,100146.19
2023-05-05T07:18:44.887Z,100149.13
2023-05-05T07:21:11.498Z,100157.38
2023-05-05T07:23:38.797Z,100149.91
2023-05-05T07:26:05.635Z,100154.72
2023-05-05T07:28:32.158Z,100155.00
2023-05-05T07:30:58.700Z,100155.25
2023-05-05T07:33:25.192Z,100159.00
2023-05-05T07:35:51.755Z,100152.38
2023-05-05T07:38:18.247Z,100150.78
2023-05-05T07:40:44.762Z,100154.22
2023-05-05T07:43:11.537Z,100151.53
2023-05-05T07:45:38.098Z,100148.63
2023-05-05T07:48:04.630Z,100151.28
2023-05-05T07:50:31.198Z,100155.25
2023-05-05T07:53:13.060Z,100151.81
2023-05-05T07:55:41.494Z,100160.06
2023-05-05T07:58:08.538Z,100163.78
2023-05-05T08:00:35.612Z,100162.69
2023-05-05T08:03:02.287Z,100166.19
2023-05-05T08:05:28.872Z,100166.16
2023-05-05T08:07:55.436Z,100172.28
2023-05-05T08:10:22.424Z,100165.06
2023-05-05T08:12:49.201Z,100173.06
2023-05-05T08:15:15.859Z,100177.56
2023-05-05T08:17:46.981Z,100161.28
2023-05-05T08:20:13.954Z,100168.22
2023-05-05T08:22:41.502Z,100162.84
2023-05-05T08:25:08.801Z,100164.41
2023-05-05T08:27:35.619Z,100169.78
2023-05-05T08:30:03.316Z,100167.56
2023-05-05T08:32:30.050Z,100171.84
2023-05-05T08:34:56.744Z,100177.16
2023-05-05T08:37:23.381Z,100168.59
2023-05-05T08:39:49.945Z,100168.56
2023-05-05T08:42:25.791Z,100178.97
2023-05-05T08:45:03.106Z,100173.31
2023-05-05T08:47:30.165Z,100172.72
2023-05-05T08:49:59.152Z,100174.28
2023-05-05T08:52:29.474Z,100181.16
2023-05-05T08:55:24.155Z,100179.50
2023-05-05T08:57:53.492Z,100182.41
2023-05-05T09:00:20.529Z,100187.66
2023-05-05T09:02:47.380Z,100182.25
2023-05-05T09:05:14.678Z,100190.19
2023-05-05T09:07:41.422Z,100179.41
2023-05-05T09:10:11.979Z,100182.81
2023-05-05T09:12:42.285Z,100181.13
2023-05-05T09:15:10.520Z,100182.88
2023-05-05T09:17:38.024Z,100184.69
2023-05-05T09:20:09.356Z,100180.03
2023-05-05T09:22:40.559Z,100184.97
2023-05-05T09:25:10.039Z,100189.34
2023-05-05T09:27:47.353Z,100178.78
2023-05-05T09:30:23.422Z,100186.63
2023-05-05T09:32:52.284Z,100186.22
2023-05-05T09:35:22.357Z,100179.59
2023-05-05T09:37:49.017Z,100188.31
2023-05-05T09:40:18.978Z,100186.56
2023-05-05T09:42:45.701Z,100179.97
2023-05-05T09:45:18.549Z,100184.84
2023-05-05T09:47:49.194Z,100185.13
2023-05-05T09:50:19.132Z,100178.09
2023-05-05T09:52:58.594Z,100182.63
2023-05-05T09:55:25.702Z,100185.06
2023-05-05T09:57:52.584Z,100168.66
2023-05-05T10:00:19.761Z,100169.78
2023-05-05T10:02:46.567Z,100171.97
2023-05-05T10:05:18.412Z,100153.75
2023-05-05T10:07:46.911Z,100166.06
2023-05-05T10:10:16.207Z,100160.69
2023-05-05T10:12:43.175Z,100161.75
2023-05-05T10:15:11.346Z,100156.81
2023-05-05T10:18:02.236Z,100149.53
2023-05-05T10:20:33.568Z,100159.81
2023-05-05T10:23:05.220Z,100158.34
2023-05-05T10:25:39.150Z,100154.16
2023-05-05T10:28:06.960Z,100146.00
2023-05-05T10:30:38.699Z,100148.00
2023-05-05T10:33:32.226Z,100138.22
2023-05-05T10:36:02.450Z,100139.22
2023-05-05T10:38:34.003Z,100146.44
2023-05-05T10:41:02.257Z,100141.72
2023-05-05T10:43:30.891Z,100143.81
2023-05-05T10:45:58.656Z,100143.97
2023-05-05T10:48:44.016Z,100147.25
2023-05-05T10:51:18.841Z,100146.34
2023-05-05T10:54:03.429Z,100144.88
2023-05-05T10:56:34.923Z,100145.44
2023-05-05T10:59:01.609Z,100139.47
2023-05-05T11:01:33.035Z,100139.53
2023-05-05T11:04:18.222Z,100137.13
2023-05-05T11:07:13.432Z,100133.38
2023-05-05T11:09:56.350Z,100127.06
2023-05-05T11:12:22.968Z,100130.19
2023-05-05T11:15:24.304Z,100132.03
2023-05-05T11:17:51.140Z,100125.56
2023-05-05T11:20:17.939Z,100125.78
2023-05-05T11:23:02.496Z,100128.13
2023-05-05T11:25:35.453Z,100129.56
2023-05-05T11:28:16.926Z,100120.25
2023-05-05T11:30:59.179Z,100121.03
2023-05-05T11:33:31.137Z,100113.09
2023-05-05T11:35:57.650Z,100107.75
2023-05-05T11:38:53.800Z,100105.56
2023-05-05T11:41:32.484Z,100105.91
2023-05-05T11:44:15.988Z,100109.56
2023-05-05T11:46:51.531Z,100099.03
2023-05-05T11:49:36.356Z,100100.06
2023-05-05T11:52:05.282Z,100098.31
2023-05-05T11:54:32.857Z,100102.56
2023-05-05T11:57:07.746Z,100111.88
2023-05-05T12:00:00.480Z,100101.53
2023-05-05T12:02:29.527Z,100104.31
2023-05-05T12:04:57.336Z,100098.59
2023-05-05T12:07:26.704Z,100100.97
2023-05-05T12:09:54.048Z,100104.16
2023-05-05T12:12:21.124Z,100106.88
2023-05-05T12:14:52.638Z,100100.50
2023-05-05T12:17:20.843Z,100106.69
2023-05-05T12:19:53.639Z,100112.56
2023-05-05T12:22:24.464Z,100107.81
2023-05-05T12:25:02.526Z,100101.75
2023-05-05T12:27:29.404Z,100106.06
2023-05-05T12:29:57.687Z,100104.94
2023-05-05T12:32:26.520Z,100110.78
2023-05-05T12:34:54.916Z,100111.22
2023-05-05T12:37:22.377Z,100109.13
2023-05-05T12:39:50.026Z,100106.50
2023-05-05T12:42:17.147Z,100097.81
2023-05-05T12:44:44.833Z,100100.03
2023-05-05T12:47:12.384Z,100102.06
2023-05-05T12:49:52.036Z,100107.19
2023-05-05T12:52:18.694Z,100100.41
2023-05-05T12:54:55.694Z,100101.41
2023-05-05T12:57:23.248Z,100091.25
2023-05-05T12:59:51.091Z,100089.00
2023-05-05T13:02:17.812Z,100095.34
2023-05-05T13:04:52.374Z,100089.59
2023-05-05T13:07:20.645Z,100086.06
2023-05-05T13:09:50.931Z,100081.91
2023-05-05T13:12:18.448Z,100075.81
2023-05-05T13:14:45.630Z,100075.34
2023-05-05T13:17:13.310Z,100070.47
2023-05-05T13:19:46.498Z,100071.09
2023-05-05T13:22:13.592Z,100063.72
2023-05-05T13:24:50.952Z,100064.41
2023-05-05T13:27:19.996Z,100065.84
2023-05-05T13:29:46.768Z,100051.56
2023-05-05T13:32:13.332Z,100055.28
2023-05-05T13:34:39.882Z,100051.88
2023-05-05T13:37:06.592Z,100052.50
2023-05-05T13:39:33.256Z,100052.44
2023-05-05T13:42:00.000Z,100053.28
2023-05-05T13:44:26.529Z,100048.31
2023-05-05T13:46:53.140Z,100043.94
2023-05-05T13:49:20.204Z,100042.50
2023-05-05T13:51:47.144Z,100038.66
2023-05-05T13:54:14.062Z,100029.66
2023-05-05T13:56:40.835Z,100037.47
2023-05-05T13:59:07.463Z,100039.69
2023-05-05T14:01:34.056Z,100037.09
2023-05-05T14:04:03.530Z,100039.81
2023-05-05T14:06:32.433Z,100038.91
2023-05-05T14:08:59.040Z,100043.41
2023-05-05T14:11:25.621Z,100041.75
2023-05-05T14:13:52.112Z,100033.13
2023-05-05T14:16:18.767Z,100036.31
2023-05-05T14:18:45.662Z,100027.75
2023-05-05T14:21:12.293Z,100030.50
2023-05-05T14:23:38.979Z,100027.69
2023-05-05T14:26:09.062Z,100022.91
2023-05-05T14:28:36.072Z,100027.19
2023-05-05T14:31:02.586Z,100031.50
2023-05-05T14:33:29.079Z,100019.50
2023-05-05T14:35:55.741Z,100011.34
2023-05-05T14:38:22.352Z,100010.56
2023-05-05T14:40:48.964Z,100004.03
2023-05-05T14:43:15.497Z,100009.53
2023-05-05T14:45:42.105Z,100012.28
2023-05-05T14:48:08.760Z,100006.91
2023-05-05T14:50:35.386Z,100003.47
2023-05-05T14:53:01.953Z,100005.47
2023-05-05T14:55:28.563Z,100006.19
2023-05-05T14:57:55.076Z,100004.81
2023-05-05T15:00:21.666Z,100011.22
2023-05-05T15:02:48.505Z,100003.84
2023-05-05T15:05:15.312Z,100009.34
2023-05-05T15:07:41.955Z,100011.75
2023-05-05T15:10:08.984Z,100011.44
2023-05-05T15:12:35.621Z,100013.00
2023-05-05T15:15:02.181Z,100018.91
2023-05-05T15:17:30.758Z,100021.72
2023-05-05T15:19:57.494Z,100016.28
2023-05-05T15:22:24.140Z,100026.00
2023-05-05T15:24:50.932Z,100020.16
2023-05-05T15:27:18.360Z,100017.06
2023-05-05T15:29:45.134Z,100018.69
2023-05-05T15:32:11.893Z,100009.13
2023-05-05T15:34:38.480Z,100020.59
2023-05-05T15:37:05.479Z,100010.31
2023-05-05T15:39:32.010Z,100013.13
2023-05-05T15:42:03.703Z,100006.16
2023-05-05T15:44:30.647Z,100007.78
2023-05-05T15:46:57.341Z,100007.81
2023-05-05T15:49:23.893Z,100010.09
2023-05-05T15:51:50.377Z,100010.31
2023-05-05T15:54:16.915Z,100005.81
2023-05-05T15:56:43.506Z,100019.91
2023-05-05T15:59:10.046Z,100021.00
2023-05-05T16:01:36.960Z,100023.06
2023-05-05T16:04:03.709Z,100048.28
2023-05-05T16:06:30.540Z,100083.00
2023-05-05T16:08:58.614Z,100101.53
2023-05-05T16:11:26.538Z,100104.09
2023-05-05T16:13:53.399Z,100124.72
2023-05-05T16:16:19.977Z,100130.06
2023-05-05T16:18:46.590Z,100128.63
2023-05-05T16:21:13.242Z,100146.06
2023-05-05T16:23:39.962Z,100149.28
2023-05-05T16:26:06.598Z,100153.75
2023-05-05T16:28:34.317Z,100148.81
2023-05-05T16:31:02.307Z,100144.56
2023-05-05T16:33:29.201Z,100143.47
2023-05-05T16:35:55.975Z,100140.94
2023-05-05T16:38:22.823Z,100131.13
2023-05-05T16:40:49.631Z,100115.72
2023-05-05T16:43:16.466Z,100119.72
2023-05-05T16:45:43.586Z,100108.88
2023-05-05T16:48:10.162Z,100108.00
2023-05-05T16:50:36.648Z,100104.91
2023-05-05T16:53:03.260Z,100106.25
2023-05-05T16:55:29.868Z,100104.75
2023-05-05T16:57:56.506Z,100108.03
2023-05-05T17:00:23.051Z,100105.06
2023-05-05T17:02:50.162Z,100096.09
2023-05-05T17:05:17.723Z,100108.81
2023-05-05T17:07:44.620Z,100113.81
2023-05-05T17:10:11.173Z,100105.44
2023-05-05T17:12:37.809Z,100112.78
2023-05-05T17:15:04.803Z,100111.06
2023-05-05T17:17:31.326Z,100109.38
2023-05-05T17:19:57.820Z,100112.06
2023-05-05T17:22:24.506Z,100101.31
2023-05-05T17:24:51.018Z,100106.38
2023-05-05T17:27:17.589Z,100102.09
2023-05-05T17:29:44.205Z,100098.59
2023-05-05T17:32:10.998Z,100105.09
2023-05-05T17:34:37.703Z,100101.63
2023-05-05T17:37:04.755Z,100096.53
2023-05-05T17:39:31.333Z,100097.31
2023-05-05T17:41:57.886Z,100098.94
2023-05-05T17:44:24.460Z,100098.00
2023-05-05T17:46:51.274Z,100092.03
2023-05-05T17:49:17.750Z,100105.97
2023-05-05T17:51:44.393Z,100101.38
2023-05-05T17:54:10.893Z,100100.56
2023-05-05T17:56:38.075Z,100107.06
2023-05-05T17:59:04.663Z,100116.84
2023-05-05T18:01:31.251Z,100107.78
2023-05-05T18:03:57.805Z,100111.06
2023-05-05T18:06:24.941Z,100113.38
2023-05-05T18:08:51.494Z,100114.59
2023-05-05T18:11:19.354Z,100110.09
2023-05-05T18:13:45.946Z,100109.44
2023-05-05T18:16:12.635Z,100111.44
2023-05-05T18:18:41.150Z,100113.72
2023-05-05T18:21:12.072Z,100103.38
2023-05-05T18:23:40.249Z,100105.63
2023-05-05T18:26:07.461Z,100118.38
2023-05-05T18:28:34.105Z,100123.94
2023-05-05T18:31:00.640Z,100126.53
2023-05-05T18:33:27.292Z,100126.13
2023-05-05T18:35:53.871Z,100127.59
2023-05-05T18:38:21.495Z,100129.38
2023-05-05T18:40:48.178Z,100128.69
2023-05-05T18:43:14.696Z,100129.38
2023-05-05T18:45:41.881Z,100130.84
2023-05-05T18:48:08.585Z,100135.59
2023-05-05T18:50:36.897Z,100144.59
2023-05-05T18:53:03.499Z,100147.41
2023-05-05T18:55:30.127Z,100151.91
2023-05-05T18:57:56.672Z,100154.69
2023-05-05T19:00:23.297Z,100146.63
2023-05-05T19:02:49.840Z,100147.50
2023-05-05T19:05:16.520Z,100150.19
2023-05-05T19:07:43.030Z,100160.22
2023-05-05T19:10:10.169Z,100163.69
2023-05-05T19:12:36.827Z,100165.84
2023-05-05T19:15:03.495Z,100164.84
2023-05-05T19:17:30.108Z,100172.66
2023-05-05T19:19:56.733Z,100175.63
2023-05-05T19:22:23.985Z,100176.72
2023-05-05T19:24:50.505Z,100171.41
2023-05-05T19:27:17.393Z,100177.16
2023-05-05T19:29:44.405Z,100176.72
2023-05-05T19:32:11.174Z,100172.47
2023-05-05T19:34:37.753Z,100171.22
2023-05-05T19:37:04.342Z,100170.78
2023-05-05T19:39:31.328Z,100163.34
2023-05-05T19:41:57.875Z,100179.56
2023-05-05T19:44:24.392Z,100167.66
2023-05-05T19:46:52.621Z,100169.34
2023-05-05T19:49:19.318Z,100170.75
2023-05-05T19:51:47.615Z,100172.47
2023-05-05T19:54:14.167Z,100180.03
2023-05-05T19:56:40.709Z,100171.03
2023-05-05T19:59:07.459Z,100175.41
2023-05-05T20:01:35.765Z,100179.22
2023-05-05T20:04:03.785Z,100175.84
2023-05-05T20:06:30.416Z,100183.63
2023-05-05T20:08:56.896Z,100183.94
2023-05-05T20:11:24.950Z,100194.69
2023-05-05T20:13:51.784Z,100191.81
2023-05-05T20:16:18.944Z,100185.69
2023-05-05T20:18:45.538Z,100187.84
2023-05-05T20:21:12.214Z,100181.72
2023-05-05T20:23:39.006Z,100195.91
2023-05-05T20:26:06.376Z,100189.56
2023-05-05T20:28:33.134Z,100197.34
2023-05-05T20:31:00.911Z,100199.78
2023-05-05T20:33:30.838Z,100196.06
2023-05-05T20:35:57.377Z,100199.84
2023-05-05T20:38:23.975Z,100194.25
2023-05-05T20:40:51.012Z,100196.41
2023-05-05T20:43:17.756Z,100188.41
2023-05-05T20:45:44.444Z,100188.72
2023-05-05T20:48:11.585Z,100191.41
2023-05-05T20:50:38.981Z,100192.25
2023-05-05T20:53:08.167Z,100196.50
2023-05-05T20:55:34.902Z,100194.91
2023-05-05T20:58:01.585Z,100204.84
2023-05-05T21:00:28.076Z,100213.38
2023-05-05T21:02:56.870Z,100212.59
2023-05-05T21:05:23.783Z,100212.84
2023-05-05T21:07:50.408Z,100203.75
2023-05-05T21:10:16.970Z,100208.03
2023-05-05T21:12:43.499Z,100210.69
2023-05-05T21:15:11.178Z,100210.69
2023-05-05T21:17:38.209Z,100204.84
2023-05-05T21:20:05.253Z,100205.38
2023-05-05T21:22:31.839Z,100196.84
2023-05-05T21:25:10.321Z,100204.59
2023-05-05T21:27:36.897Z,100201.38
2023-05-05T21:30:03.557Z,100199.25
2023-05-05T21:32:30.151Z,100196.34
2023-05-05T21:34:56.736Z,100195.25
2023-05-05T21:37:23.281Z,100197.91
2023-05-05T21:39:49.989Z,100201.13
2023-05-05T21:42:16.540Z,100193.13
2023-05-05T21:44:43.261Z,100192.06
2023-05-05T21:47:09.797Z,100198.97
2023-05-05T21:49:36.367Z,100196.59
2023-05-05T21:52:02.946Z,100202.19
2023-05-05T21:54:30.060Z,100200.31
2023-05-05T21:56:56.643Z,100197.63
2023-05-05T21:59:23.311Z,100197.91
2023-05-05T22:01:49.977Z,100201.38
2023-05-05T22:04:16.624Z,100198.72
2023-05-05T22:06:43.104Z,100199.00
2023-05-05T22:09:09.692Z,100205.66
2023-05-05T22:11:36.262Z,100203.00
2023-05-05T22:14:02.743Z,100201.91
2023-05-05T22:16:29.349Z,100201.69
2023-05-05T22:18:55.928Z,100197.38
2023-05-05T22:21:22.435Z,100194.22
2023-05-05T22:23:49.094Z,100197.69
2023-05-05T22:26:15.569Z,100198.19
2023-05-05T22:28:42.326Z,100198.47
2023-05-05T22:31:08.891Z,100197.38
2023-05-05T22:33:36.172Z,100193.69
2023-05-05T22:36:02.780Z,100196.59
2023-05-05T22:38:29.330Z,100200.06
2023-05-05T22:40:55.850Z,100190.47
2023-05-05T22:43:22.332Z,100189.66
2023-05-05T22:45:49.019Z,100193.41
2023-05-05T22:48:15.540Z,100185.94
2023-05-05T22:50:42.213Z,100183.81
2023-05-05T22:53:08.710Z,100190.72
2023-05-05T22:55:35.275Z,100185.13
2023-05-05T22:58:02.007Z,100186.19
2023-05-05T23:00:28.940Z,100186.50
2023-05-05T23:02:55.527Z,100183.28
2023-05-05T23:05:22.243Z,100180.09
2023-05-05T23:07:48.880Z,100181.69
2023-05-05T23:10:15.584Z,100181.97
2023-05-05T23:12:42.174Z,100190.22
2023-05-05T23:15:10.246Z,100185.16
2023-05-05T23:17:36.977Z,100190.47
2023-05-05T23:20:04.313Z,100185.44
2023-05-05T23:22:30.950Z,100185.41
2023-05-05T23:24:57.539Z,100185.38
2023-05-05T23:27:24.031Z,100178.47
2023-05-05T23:29:50.693Z,100178.44
2023-05-05T23:32:17.620Z,100166.97
2023-05-05T23:34:44.177Z,100168.31
2023-05-05T23:37:13.420Z,100164.03
2023-05-05T23:39:40.156Z,100166.97
2023-05-05T23:42:06.652Z,100169.91
2023-05-05T23:44:33.209Z,100164.53
2023-05-05T23:46:59.701Z,100162.44
2023-05-05T23:49:26.442Z,100174.69
2023-05-05T23:51:53.049Z,100167.72
2023-05-05T23:54:19.533Z,100169.31
2023-05-05T23:56:47.771Z,100175.97
2023-05-05T23:59:14.348Z,100174.13
